createdAt,value
2019-02-11T00:00:48.797Z,48.70
2019-02-11T00:03:17.094Z,48.03
2019-02-11T00:05:45.385Z,48.70
2019-02-11T00:08:13.690Z,43.93
2019-02-11T00:10:41.965Z,43.17
2019-02-11T00:13:11.006Z,42.80
2019-02-11T00:15:39.509Z,42.50
2019-02-11T00:18:08.060Z,42.43
2019-02-11T00:20:36.366Z,40.37
2019-02-11T00:23:04.654Z,41.57
2019-02-11T00:25:32.957Z,38.90
2019-02-11T00:28:01.570Z,37.23
2019-02-11T00:30:29.854Z,35.40
2019-02-11T00:32:58.442Z,38.03
2019-02-11T00:35:27.122Z,34.27
2019-02-11T00:37:55.435Z,35.10
2019-02-11T00:40:23.724Z,34.73
2019-02-11T00:42:52.366Z,36.67
2019-02-11T00:45:20.946Z,33.43
2019-02-11T00:47:49.246Z,33.73
2019-02-11T00:50:17.526Z,33.87
2019-02-11T00:52:45.833Z,31.37
2019-02-11T00:55:14.206Z,29.93
2019-02-11T00:57:42.473Z,29.80
2019-02-11T01:00:12.117Z,28.90
2019-02-11T01:02:40.750Z,29.97
2019-02-11T01:05:09.038Z,28.53
2019-02-11T01:07:37.606Z,29.87
2019-02-11T01:10:08.530Z,26.63
2019-02-11T01:12:37.003Z,24.83
2019-02-11T01:15:08.482Z,23.93
2019-02-11T01:17:37.359Z,19.47
2019-02-11T01:20:08.809Z,15.13
2019-02-11T01:22:37.338Z,19.80
2019-02-11T01:25:06.677Z,21.17
2019-02-11T01:27:34.967Z,26.50
2019-02-11T01:30:05.542Z,32.07
2019-02-11T01:32:34.090Z,26.60
2019-02-11T01:35:02.778Z,23.13
2019-02-11T01:37:31.074Z,21.43
2019-02-11T01:39:59.558Z,21.47
2019-02-11T01:42:27.894Z,18.57
2019-02-11T01:44:56.189Z,20.37
2019-02-11T01:47:24.777Z,18.00
2019-02-11T01:49:53.076Z,17.60
2019-02-11T01:52:21.379Z,16.60
2019-02-11T01:54:49.692Z,16.37
2019-02-11T01:57:18.377Z,16.33
2019-02-11T01:59:48.144Z,15.70
2019-02-11T02:02:16.786Z,15.07
2019-02-11T02:04:45.370Z,14.27
2019-02-11T02:07:13.725Z,13.83
2019-02-11T02:09:42.331Z,13.53
2019-02-11T02:12:10.630Z,13.20
2019-02-11T02:14:39.002Z,11.80
2019-02-11T02:17:07.286Z,12.50
2019-02-11T02:19:36.991Z,12.13
2019-02-11T02:22:05.309Z,10.67
2019-02-11T02:24:33.621Z,10.43
2019-02-11T02:27:02.213Z,10.20
2019-02-11T02:29:30.509Z,10.23
2019-02-11T02:31:58.808Z,10.07
2019-02-11T02:34:27.098Z,10.70
2019-02-11T02:36:55.413Z,9.70
2019-02-11T02:39:24.021Z,9.90
2019-02-11T02:41:52.309Z,9.83
2019-02-11T02:44:20.875Z,9.27
2019-02-11T02:46:49.267Z,7.73
2019-02-11T02:49:17.837Z,8.53
2019-02-11T02:51:46.410Z,8.57
2019-02-11T02:54:14.720Z,7.77
2019-02-11T02:56:43.086Z,8.30
2019-02-11T02:59:11.387Z,8.07
2019-02-11T03:01:39.746Z,8.33
2019-02-11T03:04:08.310Z,8.23
2019-02-11T03:06:36.615Z,7.57
2019-02-11T03:09:05.144Z,7.23
2019-02-11T03:11:33.776Z,6.73
2019-02-11T03:14:05.636Z,7.37
2019-02-11T03:16:32.173Z,6.70
2019-02-11T03:19:02.744Z,6.33
2019-02-11T03:21:30.767Z,7.10
2019-02-11T03:23:59.066Z,6.37
2019-02-11T03:26:27.466Z,6.50
2019-02-11T03:28:56.091Z,6.40
2019-02-11T03:31:24.407Z,6.33
2019-02-11T03:33:52.944Z,6.13
2019-02-11T03:36:21.824Z,6.07
2019-02-11T03:38:50.147Z,5.70
2019-02-11T03:41:18.458Z,5.50
2019-02-11T03:43:46.818Z,6.13
2019-02-11T03:46:15.114Z,5.63
2019-02-11T03:48:43.401Z,5.53
2019-02-11T03:51:12.016Z,5.83
2019-02-11T03:53:40.612Z,4.70
2019-02-11T03:56:08.935Z,6.03
2019-02-11T03:58:37.572Z,5.17
2019-02-11T04:01:05.986Z,4.83
2019-02-11T04:03:34.625Z,5.47
2019-02-11T04:06:02.907Z,4.60
2019-02-11T04:08:31.202Z,5.67
2019-02-11T04:10:59.762Z,4.57
2019-02-11T04:13:28.349Z,4.87
2019-02-11T04:15:56.634Z,4.40
2019-02-11T04:18:24.994Z,4.53
2019-02-11T04:20:53.272Z,4.40
2019-02-11T04:23:21.862Z,4.73
2019-02-11T04:25:50.222Z,5.07
2019-02-11T04:28:18.927Z,3.93
2019-02-11T04:30:47.514Z,4.00
2019-02-11T04:33:16.089Z,3.70
2019-02-11T04:35:44.679Z,4.37
2019-02-11T04:38:12.951Z,3.87
2019-02-11T04:40:41.536Z,4.37
2019-02-11T04:43:09.833Z,4.10
2019-02-11T04:45:38.503Z,3.70
2019-02-11T04:48:07.091Z,4.13
2019-02-11T04:50:35.776Z,3.93
2019-02-11T04:53:04.054Z,3.40
2019-02-11T04:55:32.631Z,3.47
2019-02-11T04:58:01.248Z,3.83
2019-02-11T05:00:29.556Z,3.37
2019-02-11T05:02:57.829Z,3.40
2019-02-11T05:05:26.458Z,3.37
2019-02-11T05:07:54.765Z,3.37
2019-02-11T05:10:23.418Z,3.63
2019-02-11T05:12:52.006Z,3.20
2019-02-11T05:15:20.283Z,4.23
2019-02-11T05:17:48.862Z,3.47
2019-02-11T05:20:17.448Z,4.00
2019-02-11T05:22:45.734Z,2.90
2019-02-11T05:25:14.029Z,3.03
2019-02-11T05:27:42.393Z,3.03
2019-02-11T05:30:11.574Z,2.90
2019-02-11T05:32:39.908Z,2.83
2019-02-11T05:35:08.823Z,3.30
2019-02-11T05:37:37.429Z,2.63
2019-02-11T05:40:12.730Z,2.63
2019-02-11T05:42:40.997Z,2.77
2019-02-11T05:45:09.302Z,2.80
2019-02-11T05:47:38.254Z,2.60
2019-02-11T05:50:09.687Z,2.87
2019-02-11T05:52:38.108Z,2.47
2019-02-11T05:55:07.376Z,2.83
2019-02-11T05:57:38.175Z,2.60
2019-02-11T06:00:12.154Z,3.10
2019-02-11T06:02:41.353Z,2.57
2019-02-11T06:05:11.087Z,2.57
2019-02-11T06:07:39.683Z,2.47
2019-02-11T06:10:10.009Z,60.40
2019-02-11T06:12:38.297Z,34.53
2019-02-11T06:15:08.094Z,31.37
2019-02-11T06:17:36.790Z,31.33
2019-02-11T06:20:08.135Z,30.00
2019-02-11T06:22:36.507Z,31.33
2019-02-11T06:25:07.738Z,59.77
2019-02-11T06:27:36.112Z,66.90
2019-02-11T06:30:07.786Z,45.40
2019-02-11T06:32:36.150Z,52.33
2019-02-11T06:35:06.370Z,49.63
2019-02-11T06:37:34.714Z,49.77
2019-02-11T06:40:03.042Z,46.93
2019-02-11T06:42:31.756Z,46.10
2019-02-11T06:45:00.113Z,45.83
2019-02-11T06:47:29.210Z,42.70
2019-02-11T06:49:57.899Z,47.00
2019-02-11T06:52:28.353Z,94.10
2019-02-11T06:54:56.217Z,96.57
2019-02-11T06:57:24.690Z,85.03
2019-02-11T06:59:53.358Z,81.60
2019-02-11T07:02:23.705Z,70.17
2019-02-11T07:04:52.168Z,68.40
2019-02-11T07:07:20.958Z,65.33
2019-02-11T07:09:49.541Z,61.77
2019-02-11T07:12:17.967Z,59.97
2019-02-11T07:14:46.722Z,64.67
2019-02-11T07:17:15.528Z,86.00
2019-02-11T07:19:46.222Z,82.83
2019-02-11T07:22:14.816Z,102.23
2019-02-11T07:24:43.102Z,91.50
2019-02-11T07:27:11.783Z,78.13
2019-02-11T07:29:40.323Z,84.37
2019-02-11T07:32:08.645Z,91.77
2019-02-11T07:34:36.946Z,87.43
2019-02-11T07:37:05.315Z,85.67
2019-02-11T07:39:33.687Z,118.10
2019-02-11T07:42:20.375Z,89.50
2019-02-11T07:44:50.566Z,89.70
2019-02-11T07:47:19.022Z,89.07
2019-02-11T07:49:47.384Z,82.87
2019-02-11T07:52:15.794Z,80.23
2019-02-11T07:54:44.237Z,82.77
2019-02-11T07:57:12.603Z,81.10
2019-02-11T07:59:41.282Z,80.70
2019-02-11T08:02:09.615Z,77.33
2019-02-11T08:04:38.248Z,75.33
2019-02-11T08:07:06.888Z,77.13
2019-02-11T08:09:35.342Z,76.30
2019-02-11T08:12:03.647Z,75.47
2019-02-11T08:14:32.011Z,72.53
2019-02-11T08:17:00.659Z,71.80
2019-02-11T08:19:29.545Z,85.63
2019-02-11T08:21:58.243Z,84.10
2019-02-11T08:24:26.819Z,86.50
2019-02-11T08:26:55.426Z,85.60
2019-02-11T08:29:24.103Z,86.50
2019-02-11T08:31:52.490Z,84.07
2019-02-11T08:34:21.054Z,80.00
2019-02-11T08:36:49.413Z,76.37
2019-02-11T08:39:19.177Z,76.67
2019-02-11T08:41:47.488Z,75.63
2019-02-11T08:44:15.959Z,73.23
2019-02-11T08:46:44.306Z,73.53
2019-02-11T08:49:13.374Z,72.40
2019-02-11T08:51:41.723Z,72.67
2019-02-11T08:54:10.030Z,71.57
2019-02-11T08:56:38.611Z,69.23
2019-02-11T08:59:07.332Z,68.73
2019-02-11T09:01:35.722Z,64.73
2019-02-11T09:04:05.990Z,63.33
2019-02-11T09:06:34.274Z,66.27
2019-02-11T09:09:02.850Z,63.60
2019-02-11T09:11:31.543Z,61.40
2019-02-11T09:14:01.832Z,62.60
2019-02-11T09:16:30.608Z,64.27
2019-02-11T09:19:00.884Z,59.50
2019-02-11T09:21:31.101Z,62.63
2019-02-11T09:23:59.598Z,59.83
2019-02-11T09:26:27.914Z,57.87
2019-02-11T09:28:56.215Z,56.40
2019-02-11T09:31:24.787Z,53.97
2019-02-11T09:33:53.096Z,47.83
2019-02-11T09:36:21.396Z,43.80
2019-02-11T09:38:49.954Z,43.23
2019-02-11T09:41:18.260Z,39.03
2019-02-11T09:43:46.823Z,37.93
2019-02-11T09:46:15.398Z,67.73
2019-02-11T09:48:43.998Z,88.33
2019-02-11T09:51:12.307Z,100.80
2019-02-11T09:53:40.609Z,93.17
2019-02-11T09:56:08.926Z,83.33
2019-02-11T09:58:38.169Z,80.90
2019-02-11T10:01:06.803Z,77.10
2019-02-11T10:03:35.435Z,75.73
2019-02-11T10:06:03.787Z,73.37
2019-02-11T10:08:32.092Z,70.30
2019-02-11T10:11:00.454Z,70.63
2019-02-11T10:13:28.753Z,79.07
2019-02-11T10:15:57.038Z,95.37
2019-02-11T10:18:25.401Z,90.53
2019-02-11T10:20:54.039Z,92.17
2019-02-11T10:23:22.330Z,90.80
2019-02-11T10:25:50.662Z,111.20
2019-02-11T10:28:18.995Z,118.67
2019-02-11T10:30:47.274Z,121.83
2019-02-11T10:33:15.579Z,131.80
2019-02-11T10:35:44.319Z,138.10
2019-02-11T10:38:12.602Z,131.40
2019-02-11T10:40:41.279Z,117.07
2019-02-11T10:43:09.856Z,115.87
2019-02-11T10:45:38.164Z,110.77
2019-02-11T10:48:06.610Z,113.53
2019-02-11T10:50:35.201Z,115.97
2019-02-11T10:53:03.510Z,115.80
2019-02-11T10:55:32.262Z,113.93
2019-02-11T10:58:00.575Z,112.03
2019-02-11T11:00:28.868Z,112.80
2019-02-11T11:02:57.505Z,107.93
2019-02-11T11:05:25.813Z,107.50
2019-02-11T11:07:54.594Z,122.40
2019-02-11T11:10:26.257Z,128.93
2019-02-11T11:12:54.927Z,127.27
2019-02-11T11:15:23.229Z,118.23
2019-02-11T11:17:51.870Z,116.97
2019-02-11T11:20:20.192Z,118.87
2019-02-11T11:22:48.485Z,123.20
2019-02-11T11:25:17.758Z,121.03
2019-02-11T11:27:46.313Z,116.47
2019-02-11T11:30:18.697Z,113.90
2019-02-11T11:32:47.148Z,115.57
2019-02-11T11:35:16.923Z,112.97
2019-02-11T11:37:45.663Z,120.67
2019-02-11T11:40:17.066Z,121.47
2019-02-11T11:42:45.695Z,118.33
2019-02-11T11:45:21.579Z,116.47
2019-02-11T11:47:50.234Z,114.90
2019-02-11T11:50:18.528Z,117.20
2019-02-11T11:52:46.840Z,123.33
2019-02-11T11:55:20.545Z,123.20
2019-02-11T11:57:48.862Z,152.87
2019-02-11T12:00:19.925Z,143.00
2019-02-11T12:03:00.429Z,145.83
2019-02-11T12:05:18.482Z,138.00
2019-02-11T12:07:46.879Z,136.83
2019-02-11T12:10:15.615Z,133.40
2019-02-11T12:12:45.639Z,133.07
2019-02-11T12:15:16.693Z,132.63
2019-02-11T12:17:46.221Z,127.60
2019-02-11T12:20:15.517Z,127.80
2019-02-11T12:22:46.104Z,127.13
2019-02-11T12:25:16.164Z,135.63
2019-02-11T12:27:44.514Z,146.23
2019-02-11T12:30:15.101Z,140.93
2019-02-11T12:32:43.526Z,133.53
2019-02-11T12:35:13.619Z,131.60
2019-02-11T12:37:41.920Z,130.70
2019-02-11T12:40:11.478Z,128.33
2019-02-11T12:42:40.183Z,125.80
2019-02-11T12:45:11.298Z,123.57
2019-02-11T12:47:39.654Z,122.90
2019-02-11T12:50:10.679Z,142.57
2019-02-11T12:52:38.984Z,123.47
2019-02-11T12:55:10.095Z,123.00
2019-02-11T12:57:38.454Z,120.50
2019-02-11T13:00:16.223Z,122.07
2019-02-11T13:02:42.532Z,125.03
2019-02-11T13:05:11.809Z,122.67
2019-02-11T13:07:40.201Z,122.57
2019-02-11T13:10:12.088Z,115.80
2019-02-11T13:12:40.390Z,120.10
2019-02-11T13:15:10.979Z,118.67
2019-02-11T13:17:39.319Z,114.33
2019-02-11T13:20:11.820Z,109.57
2019-02-11T13:22:43.294Z,117.47
2019-02-11T13:25:14.170Z,120.43
2019-02-11T13:27:42.550Z,122.27
2019-02-11T13:30:24.825Z,121.23
2019-02-11T13:32:53.306Z,110.67
2019-02-11T13:35:21.669Z,113.17
2019-02-11T13:37:54.347Z,113.33
2019-02-11T13:40:20.310Z,116.20
2019-02-11T13:42:48.620Z,108.17
2019-02-11T13:45:18.750Z,110.20
2019-02-11T13:47:57.616Z,102.60
2019-02-11T13:50:21.132Z,102.50
2019-02-11T13:52:49.872Z,102.10
2019-02-11T13:55:18.243Z,96.60
2019-02-11T13:57:46.614Z,94.13
2019-02-11T14:00:19.016Z,92.93
2019-02-11T14:02:51.437Z,91.70
2019-02-11T14:05:20.085Z,87.83
2019-02-11T14:07:48.451Z,85.53
2019-02-11T14:10:16.758Z,80.67
2019-02-11T14:12:45.063Z,71.37
2019-02-11T14:15:13.439Z,74.33
2019-02-11T14:17:41.829Z,81.53
2019-02-11T14:20:21.023Z,80.43
2019-02-11T14:22:49.365Z,80.07
2019-02-11T14:25:17.768Z,78.83
2019-02-11T14:27:46.109Z,75.67
2019-02-11T14:30:19.635Z,76.33
2019-02-11T14:32:48.017Z,73.33
2019-02-11T14:35:17.426Z,71.37
2019-02-11T14:37:46.128Z,67.27
2019-02-11T14:40:14.940Z,62.17
2019-02-11T14:42:43.431Z,66.40
2019-02-11T14:45:16.941Z,75.50
2019-02-11T14:47:45.398Z,69.87
2019-02-11T14:50:14.177Z,65.60
2019-02-11T14:52:44.461Z,65.20
2019-02-11T14:55:13.646Z,67.47
2019-02-11T14:57:41.951Z,64.17
2019-02-11T15:00:18.134Z,62.80
2019-02-11T15:02:46.438Z,61.00
2019-02-11T15:05:15.169Z,61.03
2019-02-11T15:07:43.796Z,61.63
2019-02-11T15:10:12.793Z,59.47
2019-02-11T15:12:41.434Z,57.77
2019-02-11T15:15:11.078Z,54.73
2019-02-11T15:17:40.983Z,52.33
2019-02-11T15:20:11.036Z,53.00
2019-02-11T15:22:42.414Z,50.90
2019-02-11T15:25:19.598Z,62.67
2019-02-11T15:27:51.588Z,79.90
2019-02-11T15:30:20.255Z,87.57
2019-02-11T15:33:08.323Z,84.00
2019-02-11T15:35:39.200Z,95.17
2019-02-11T15:38:07.510Z,81.20
2019-02-11T15:40:39.084Z,90.90
2019-02-11T15:43:07.445Z,82.60
2019-02-11T15:45:36.537Z,80.10
2019-02-11T15:48:04.822Z,74.80
2019-02-11T15:50:33.113Z,79.43
2019-02-11T15:53:01.418Z,74.27
2019-02-11T15:55:29.703Z,73.73
2019-02-11T15:57:58.106Z,73.30
2019-02-11T16:00:26.401Z,77.17
2019-02-11T16:02:54.710Z,74.60
2019-02-11T16:05:23.013Z,75.47
2019-02-11T16:07:51.309Z,79.37
2019-02-11T16:10:25.708Z,81.50
2019-02-11T16:12:54.029Z,77.30
2019-02-11T16:15:22.488Z,79.17
2019-02-11T16:17:50.894Z,75.27
2019-02-11T16:20:19.508Z,73.93
2019-02-11T16:22:50.171Z,71.43
2019-02-11T16:25:20.975Z,66.20
2019-02-11T16:27:48.990Z,64.00
2019-02-11T16:30:20.499Z,65.93
2019-02-11T16:32:48.797Z,62.97
2019-02-11T16:35:18.179Z,63.90
2019-02-11T16:37:46.459Z,62.73
2019-02-11T16:40:23.453Z,59.83
2019-02-11T16:42:52.015Z,59.17
2019-02-11T16:45:20.327Z,58.30
2019-02-11T16:47:48.879Z,56.07
2019-02-11T16:50:17.212Z,54.63
2019-02-11T16:52:45.844Z,55.20
2019-02-11T16:55:15.430Z,53.87
2019-02-11T16:57:43.878Z,51.00
2019-02-11T17:00:14.403Z,47.93
2019-02-11T17:02:43.050Z,52.20
2019-02-11T17:05:11.899Z,51.07
2019-02-11T17:07:42.190Z,51.47
2019-02-11T17:10:14.865Z,49.87
2019-02-11T17:12:43.217Z,49.90
2019-02-11T17:15:17.766Z,49.37
2019-02-11T17:17:46.946Z,46.87
2019-02-11T17:20:16.233Z,44.83
2019-02-11T17:22:47.507Z,45.03
2019-02-11T17:25:19.031Z,42.77
2019-02-11T17:27:47.627Z,43.30
2019-02-11T17:30:27.498Z,40.30
2019-02-11T17:32:55.790Z,40.27
2019-02-11T17:35:24.532Z,39.00
2019-02-11T17:37:53.115Z,39.20
2019-02-11T17:40:21.420Z,36.73
2019-02-11T17:42:49.978Z,35.43
2019-02-11T17:45:24.164Z,36.07
2019-02-11T17:47:52.450Z,50.07
2019-02-11T17:50:20.761Z,54.07
2019-02-11T17:52:51.542Z,52.97
2019-02-11T17:55:19.835Z,51.27
2019-02-11T17:57:49.766Z,51.83
2019-02-11T18:00:33.790Z,50.97
2019-02-11T18:03:02.102Z,49.30
2019-02-11T18:05:30.420Z,47.93
2019-02-11T18:08:01.569Z,44.17
2019-02-11T18:10:30.147Z,46.57
2019-02-11T18:12:58.779Z,48.37
2019-02-11T18:15:27.087Z,48.67
2019-02-11T18:17:55.743Z,52.10
2019-02-11T18:20:24.083Z,49.83
2019-02-11T18:22:52.422Z,46.43
2019-02-11T18:25:21.109Z,46.10
2019-02-11T18:27:49.775Z,45.17
2019-02-11T18:30:18.070Z,41.80
2019-02-11T18:32:46.633Z,46.90
2019-02-11T18:35:17.881Z,50.90
2019-02-11T18:37:46.171Z,53.03
2019-02-11T18:40:17.810Z,56.20
2019-02-11T18:42:46.118Z,54.10
2019-02-11T18:45:15.908Z,53.40
2019-02-11T18:47:44.209Z,54.60
2019-02-11T18:50:14.349Z,53.67
2019-02-11T18:52:42.787Z,53.27
2019-02-11T18:55:14.363Z,53.40
2019-02-11T18:57:43.155Z,49.17
2019-02-11T19:00:18.395Z,52.27
2019-02-11T19:02:46.859Z,55.10
2019-02-11T19:05:15.251Z,63.50
2019-02-11T19:07:43.535Z,65.90
2019-02-11T19:10:16.429Z,69.67
2019-02-11T19:12:47.758Z,70.97
2019-02-11T19:15:17.587Z,71.43
2019-02-11T19:17:45.935Z,68.97
2019-02-11T19:20:17.787Z,68.17
2019-02-11T19:22:46.367Z,67.03
2019-02-11T19:25:14.683Z,75.93
2019-02-11T19:27:42.984Z,79.00
2019-02-11T19:30:25.801Z,80.57
2019-02-11T19:32:54.154Z,92.17
2019-02-11T19:35:22.457Z,91.97
2019-02-11T19:37:51.371Z,90.40
2019-02-11T19:40:20.651Z,90.10
2019-02-11T19:42:48.957Z,89.33
2019-02-11T19:45:22.671Z,86.70
2019-02-11T19:47:51.161Z,83.13
2019-02-11T19:50:19.844Z,85.63
2019-02-11T19:52:48.738Z,81.43
2019-02-11T19:55:17.109Z,80.00
2019-02-11T19:57:45.689Z,79.47
2019-02-11T20:00:23.443Z,76.67
2019-02-11T20:02:51.798Z,77.17
2019-02-11T20:05:20.450Z,79.73
2019-02-11T20:07:49.048Z,79.37
2019-02-11T20:10:24.866Z,79.03
2019-02-11T20:12:53.484Z,77.07
2019-02-11T20:15:30.075Z,77.87
2019-02-11T20:17:58.429Z,77.30
2019-02-11T20:20:26.729Z,74.57
2019-02-11T20:22:57.580Z,76.50
2019-02-11T20:25:26.219Z,120.10
2019-02-11T20:27:55.032Z,115.37
2019-02-11T20:30:26.973Z,100.07
2019-02-11T20:32:55.304Z,93.07
2019-02-11T20:35:23.863Z,92.30
2019-02-11T20:37:52.253Z,91.63
2019-02-11T20:40:28.181Z,93.87
2019-02-11T20:42:56.475Z,94.30
2019-02-11T20:45:30.992Z,95.03
2019-02-11T20:47:59.293Z,92.57
2019-02-11T20:50:28.270Z,93.73
2019-02-11T20:52:56.847Z,93.47
2019-02-11T20:55:25.327Z,89.50
2019-02-11T20:58:00.470Z,89.90
2019-02-11T21:00:28.775Z,85.53
2019-02-11T21:02:57.431Z,86.33
2019-02-11T21:05:26.109Z,86.87
2019-02-11T21:07:54.682Z,94.90
2019-02-11T21:10:25.299Z,93.87
2019-02-11T21:12:53.659Z,92.87
2019-02-11T21:15:22.571Z,92.27
2019-02-11T21:17:51.171Z,99.47
2019-02-11T21:20:32.032Z,155.77
2019-02-11T21:23:01.033Z,105.67
2019-02-11T21:25:29.483Z,110.13
2019-02-11T21:27:59.473Z,106.07
2019-02-11T21:30:29.131Z,105.10
2019-02-11T21:32:57.692Z,106.13
2019-02-11T21:35:26.293Z,144.93
2019-02-11T21:37:54.742Z,168.57
2019-02-11T21:40:23.379Z,162.67
2019-02-11T21:42:51.703Z,153.17
2019-02-11T21:45:20.584Z,140.83
2019-02-11T21:47:48.887Z,134.40
2019-02-11T21:50:26.415Z,135.37
2019-02-11T21:52:48.673Z,131.33
2019-02-11T21:55:23.027Z,128.40
2019-02-11T21:57:51.696Z,128.03
2019-02-11T22:00:23.491Z,125.87
2019-02-11T22:02:52.159Z,124.10
2019-02-11T22:05:20.495Z,119.80
2019-02-11T22:07:49.106Z,118.40
2019-02-11T22:10:19.627Z,117.63
2019-02-11T22:12:47.944Z,115.93
2019-02-11T22:15:16.239Z,118.30
2019-02-11T22:17:44.877Z,115.83
2019-02-11T22:20:15.992Z,117.40
2019-02-11T22:22:44.700Z,112.80
2019-02-11T22:25:13.677Z,112.20
2019-02-11T22:27:42.011Z,109.47
2019-02-11T22:30:21.143Z,109.10
2019-02-11T22:32:49.502Z,109.23
2019-02-11T22:35:17.811Z,104.97
2019-02-11T22:37:47.751Z,103.00
2019-02-11T22:40:16.081Z,105.43
2019-02-11T22:42:44.450Z,110.27
2019-02-11T22:45:15.438Z,120.00
2019-02-11T22:47:44.054Z,128.03
2019-02-11T22:50:13.282Z,123.20
2019-02-11T22:52:41.762Z,122.63
2019-02-11T22:55:12.574Z,120.53
2019-02-11T22:57:40.862Z,120.73
2019-02-11T23:00:35.438Z,115.63
2019-02-11T23:03:04.275Z,112.40
2019-02-11T23:05:32.920Z,116.70
2019-02-11T23:08:01.217Z,118.13
2019-02-11T23:10:29.656Z,153.67
2019-02-11T23:12:57.975Z,145.60
2019-02-11T23:15:26.627Z,128.23
2019-02-11T23:17:54.919Z,125.83
2019-02-11T23:20:23.225Z,124.97
2019-02-11T23:22:51.520Z,138.57
2019-02-11T23:25:20.151Z,152.77
2019-02-11T23:27:48.446Z,153.13
2019-02-11T23:30:17.111Z,171.20
2019-02-11T23:32:45.700Z,150.67
2019-02-11T23:35:14.280Z,138.87
2019-02-11T23:37:42.590Z,131.13
2019-02-11T23:40:10.874Z,134.97
2019-02-11T23:42:39.520Z,128.73
2019-02-11T23:45:09.639Z,126.67
2019-02-11T23:47:38.227Z,123.80
2019-02-11T23:50:09.793Z,118.13
2019-02-11T23:52:38.357Z,117.93
2019-02-11T23:55:08.883Z,122.13
2019-02-11T23:57:37.216Z,125.53
